Time;durP1;ratioP1;P1;durP2;ratioP2;P2;SDS_P1;SDS_P2;PMS_P1;PMS_P2;Temp;Humidity;BMP_temperature;BMP_pressure;BME280_temperature;BME280_humidity;BME280_pressure;Samples;Min_cycle;Max_cycle;Signal;HPM_P1;HPM_P2
2023/07/20 00:02:11;;;;;;;4.20;1.80;;;;;;;21.96;54.10;94501.00;5055801;28;20048;-77
2023/07/20 00:04:36;;;;;;;4.43;1.73;;;;;;;21.70;56.29;94507.09;5057048;28;20020;-77
2023/07/20 00:07:02;;;;;;;8.45;2.05;;;;;;;21.57;56.56;94521.13;5082857;28;20058;-76
2023/07/20 00:09:27;;;;;;;7.53;2.30;;;;;;;21.52;56.89;94536.78;5055032;28;20024;-77
2023/07/20 00:11:53;;;;;;;5.80;2.00;;;;;;;21.35;57.03;94515.16;5050790;28;20024;-77
2023/07/20 00:14:18;;;;;;;8.35;2.30;;;;;;;21.27;56.21;94534.66;5086988;28;20048;-77
2023/07/20 00:16:49;;;;;;;9.00;2.00;;;;;;;21.37;55.67;94516.63;5065233;28;20044;-76
2023/07/20 00:19:16;;;;;;;7.43;2.13;;;;;;;21.44;55.23;94507.91;5053307;28;20554;-76
2023/07/20 00:21:42;;;;;;;5.90;2.28;;;;;;;21.33;55.17;94488.13;5067876;28;20652;-77
2023/07/20 00:24:08;;;;;;;4.50;1.80;;;;;;;21.50;54.61;94502.59;5071191;28;20024;-76
2023/07/20 00:26:33;;;;;;;9.13;2.28;;;;;;;21.47;54.22;94478.44;5050362;28;20457;-76
2023/07/20 00:28:59;;;;;;;4.18;2.10;;;;;;;21.58;54.10;94478.63;5058756;28;20037;-76
2023/07/20 00:31:24;;;;;;;5.75;2.05;;;;;;;21.70;53.74;94488.59;5074045;28;20502;-77
2023/07/20 00:33:50;;;;;;;7.18;2.05;;;;;;;21.57;53.50;94473.56;5052254;28;20051;-76
2023/07/20 00:36:15;;;;;;;5.53;2.30;;;;;;;21.57;53.55;94473.56;5081700;28;20045;-77
2023/07/20 00:38:42;;;;;;;4.00;2.13;;;;;;;21.61;53.41;94474.78;5047665;28;20474;-76
2023/07/20 00:41:07;;;;;;;6.93;2.30;;;;;;;21.56;53.79;94477.19;5101003;28;20043;-77
2023/07/20 00:43:33;;;;;;;6.28;1.92;;;;;;;21.48;54.16;94459.75;5029451;28;20037;-76
2023/07/20 00:45:58;;;;;;;7.18;2.13;;;;;;;21.48;54.21;94464.19;5078426;28;20432;-76
2023/07/20 00:48:23;;;;;;;6.68;2.50;;;;;;;21.52;54.32;94462.78;5050578;28;20525;-76
2023/07/20 00:50:49;;;;;;;4.05;1.95;;;;;;;21.43;54.25;94485.94;5068555;28;20027;-76
2023/07/20 00:53:14;;;;;;;8.63;1.90;;;;;;;21.56;53.71;94493.91;5049558;28;20052;-76
2023/07/20 00:55:40;;;;;;;6.10;2.10;;;;;;;21.42;55.04;94495.72;5074542;28;20104;-76
2023/07/20 00:58:05;;;;;;;6.05;2.35;;;;;;;21.39;54.89;94485.53;5080031;28;20036;-76
2023/07/20 01:00:31;;;;;;;6.65;2.33;;;;;;;21.32;54.83;94479.41;5080118;28;20039;-76
2023/07/20 01:02:57;;;;;;;8.18;2.03;;;;;;;21.34;54.81;94480.03;5074421;28;20029;-76
2023/07/20 01:05:25;;;;;;;6.32;2.10;;;;;;;21.39;54.58;94493.44;5072096;28;20024;-76
2023/07/20 01:07:56;;;;;;;6.32;2.30;;;;;;;21.23;55.01;94490.34;5056412;28;20056;-76
2023/07/20 01:11:03;;;;;;;5.22;2.22;;;;;;;21.22;55.61;94478.97;5076017;28;20056;-76
2023/07/20 01:13:28;;;;;;;5.05;2.30;;;;;;;20.98;56.14;94478.53;5051783;28;20045;-76
2023/07/20 01:15:58;;;;;;;4.65;2.10;;;;;;;21.03;56.40;94482.38;5063418;28;20036;-77
2023/07/20 01:18:23;;;;;;;6.07;1.90;;;;;;;21.10;56.67;94501.69;5089527;28;20503;-76
2023/07/20 01:20:49;;;;;;;4.07;2.05;;;;;;;20.85;57.36;94488.22;5087734;28;20031;-76
2023/07/20 01:23:56;;;;;;;5.00;2.72;;;;;;;21.06;57.38;94487.25;5069395;28;20025;-77
2023/07/20 01:26:36;;;;;;;5.47;2.22;;;;;;;21.06;57.63;94506.56;5061862;28;20132;-77
2023/07/20 01:29:34;;;;;;;5.25;2.15;;;;;;;20.90;57.60;94486.63;5054769;28;20082;-77
2023/07/20 01:31:59;;;;;;;6.32;2.53;;;;;;;20.67;57.92;94473.75;5063863;28;20059;-76
2023/07/20 01:34:25;;;;;;;4.28;2.20;;;;;;;20.74;58.27;94482.50;5074151;28;20409;-76
2023/07/20 01:36:50;;;;;;;6.35;2.22;;;;;;;20.63;58.52;94467.22;5091620;28;21645;-76
2023/07/20 01:39:16;;;;;;;5.25;2.08;;;;;;;20.56;58.96;94484.88;5056225;28;20131;-77
2023/07/20 01:41:42;;;;;;;6.00;2.58;;;;;;;20.34;59.50;94486.75;5063232;28;20040;-76
2023/07/20 01:44:08;;;;;;;7.72;2.17;;;;;;;20.34;59.93;94480.66;5070755;28;20036;-76
2023/07/20 01:46:33;;;;;;;6.20;2.10;;;;;;;20.42;59.79;94481.34;5072213;28;20036;-77
2023/07/20 01:48:58;;;;;;;6.47;2.30;;;;;;;20.22;60.15;94478.56;5073250;28;20020;-76
2023/07/20 01:51:24;;;;;;;6.30;1.98;;;;;;;20.19;60.33;94481.59;5072556;28;20560;-76
2023/07/20 01:53:49;;;;;;;5.57;1.90;;;;;;;20.11;59.92;94473.03;5072031;28;20028;-76
2023/07/20 01:56:15;;;;;;;6.18;2.38;;;;;;;20.21;59.40;94492.78;5074683;28;20032;-77
2023/07/20 01:58:40;;;;;;;6.25;2.58;;;;;;;20.13;59.20;94476.28;5071006;28;20020;-76
2023/07/20 02:01:05;;;;;;;4.95;2.33;;;;;;;20.21;59.38;94470.88;5080657;28;20037;-77
2023/07/20 02:03:31;;;;;;;5.15;1.88;;;;;;;20.20;58.99;94475.31;5070425;28;20032;-76
2023/07/20 02:05:57;;;;;;;4.63;2.20;;;;;;;20.23;59.22;94489.94;5088207;28;20663;-77
2023/07/20 02:08:22;;;;;;;4.43;2.20;;;;;;;20.19;59.41;94471.03;5069745;28;20020;-77
2023/07/20 02:10:48;;;;;;;3.95;1.95;;;;;;;20.18;58.98;94444.88;5070115;28;20456;-76
2023/07/20 02:13:13;;;;;;;4.63;1.92;;;;;;;20.19;59.31;94449.94;5036167;28;20037;-77
2023/07/20 02:15:40;;;;;;;5.55;2.28;;;;;;;20.28;60.04;94471.69;5061280;28;20028;-76
2023/07/20 02:18:05;;;;;;;6.90;2.55;;;;;;;20.28;59.85;94466.41;5074810;28;20102;-77
2023/07/20 02:20:38;;;;;;;4.82;2.10;;;;;;;20.15;59.92;94458.47;5082750;28;20024;-76
2023/07/20 02:23:04;;;;;;;5.00;2.40;;;;;;;19.99;60.44;94449.03;5073975;28;20078;-77
2023/07/20 02:25:29;;;;;;;6.57;2.17;;;;;;;20.03;60.71;94459.00;5083161;28;20028;-77
2023/07/20 02:27:56;;;;;;;6.03;2.22;;;;;;;19.95;60.34;94448.63;5064482;28;20036;-77
2023/07/20 02:30:21;;;;;;;4.90;2.22;;;;;;;19.82;61.01;94446.69;5069954;28;20021;-76
2023/07/20 02:32:49;;;;;;;8.27;2.40;;;;;;;19.89;60.82;94467.00;5070188;28;20036;-76
2023/07/20 02:35:17;;;;;;;8.30;2.63;;;;;;;19.86;60.12;94462.94;5070217;28;20025;-77
2023/07/20 02:37:43;;;;;;;4.32;2.20;;;;;;;19.26;62.06;94480.88;5072905;28;20029;-76
2023/07/20 02:40:27;;;;;;;5.43;2.53;;;;;;;19.33;62.00;94473.03;5077960;28;20021;-77
2023/07/20 02:42:53;;;;;;;5.32;2.25;;;;;;;19.29;62.01;94467.31;5069404;28;20032;-77
2023/07/20 02:45:18;;;;;;;6.88;2.95;;;;;;;19.22;61.94;94439.28;5064841;28;20455;-76
2023/07/20 02:47:44;;;;;;;11.90;2.90;;;;;;;19.28;62.40;94460.44;5071601;28;20041;-76
2023/07/20 02:50:09;;;;;;;5.13;2.40;;;;;;;19.27;62.91;94458.78;5080504;28;20399;-76
2023/07/20 02:52:35;;;;;;;6.13;2.25;;;;;;;19.34;62.68;94445.69;5055787;28;20479;-77
2023/07/20 02:55:00;;;;;;;7.03;2.60;;;;;;;19.26;62.68;94445.84;5050297;28;20024;-77
2023/07/20 02:57:27;;;;;;;7.60;2.35;;;;;;;19.23;62.61;94446.22;5067607;28;20090;-76
2023/07/20 02:59:52;;;;;;;5.82;2.25;;;;;;;19.26;62.56;94440.56;5094225;28;20410;-76
2023/07/20 03:02:17;;;;;;;6.53;2.72;;;;;;;19.30;62.12;94436.53;5044161;28;20033;-77
2023/07/20 03:04:43;;;;;;;6.43;2.55;;;;;;;19.36;62.12;94447.16;5075937;28;20098;-77
2023/07/20 03:07:08;;;;;;;4.75;2.65;;;;;;;19.27;61.92;94429.03;5071602;28;20032;-76
2023/07/20 03:09:34;;;;;;;4.18;2.50;;;;;;;19.44;61.79;94438.28;5107525;27;20028;-76
2023/07/20 03:11:59;;;;;;;6.82;3.10;;;;;;;19.39;61.78;94445.94;5083750;28;20063;-76
2023/07/20 03:14:29;;;;;;;7.30;2.70;;;;;;;19.28;61.79;94428.84;5071033;28;20028;-77
2023/07/20 03:16:55;;;;;;;5.72;2.67;;;;;;;19.33;61.89;94447.50;5070351;28;20056;-76
2023/07/20 03:19:20;;;;;;;5.50;2.70;;;;;;;19.44;61.71;94448.81;5072474;28;20063;-76
2023/07/20 03:21:46;;;;;;;7.20;2.67;;;;;;;19.36;61.64;94439.25;5067842;28;20040;-76
2023/07/20 03:24:11;;;;;;;5.53;2.70;;;;;;;19.45;61.07;94455.72;5088396;28;20029;-77
2023/07/20 03:26:37;;;;;;;6.78;2.60;;;;;;;19.46;61.48;94454.72;5074109;28;20032;-77
2023/07/20 03:29:02;;;;;;;8.15;2.50;;;;;;;19.55;62.10;94472.00;5071272;28;20452;-77
2023/07/20 03:31:28;;;;;;;6.07;3.05;;;;;;;19.55;62.18;94469.34;5046847;28;20033;-76
2023/07/20 03:33:53;;;;;;;6.10;2.40;;;;;;;19.25;62.60;94481.88;5071448;28;20029;-76
2023/07/20 03:36:18;;;;;;;4.63;2.55;;;;;;;19.26;62.33;94456.38;5088991;28;20253;-77
2023/07/20 03:38:44;;;;;;;4.75;2.70;;;;;;;19.35;62.24;94471.81;5052305;28;20020;-77
2023/07/20 03:41:11;;;;;;;6.22;2.70;;;;;;;19.38;62.39;94475.91;5087988;28;20040;-77
2023/07/20 03:43:37;;;;;;;4.88;2.45;;;;;;;19.43;62.91;94468.25;5069149;28;20021;-76
2023/07/20 03:46:06;;;;;;;4.40;2.47;;;;;;;19.38;62.98;94457.47;5069711;28;20036;-76
2023/07/20 03:48:31;;;;;;;5.88;2.90;;;;;;;19.70;63.32;94471.16;5058546;28;20495;-76
2023/07/20 03:50:58;;;;;;;6.07;2.58;;;;;;;19.48;63.01;94454.53;5071195;28;21106;-76
2023/07/20 03:53:23;;;;;;;6.40;2.50;;;;;;;19.60;63.40;94469.59;5068299;28;20040;-76
2023/07/20 03:55:49;;;;;;;6.80;2.42;;;;;;;19.74;62.68;94488.19;5068655;28;20414;-76
2023/07/20 03:58:15;;;;;;;5.47;2.55;;;;;;;19.70;63.20;94479.88;5069477;28;20025;-76
2023/07/20 04:00:44;;;;;;;8.30;2.80;;;;;;;19.62;63.25;94461.53;5068255;28;20541;-76
2023/07/20 04:03:09;;;;;;;6.90;2.60;;;;;;;19.79;63.49;94468.16;5102032;28;20524;-77
2023/07/20 04:05:35;;;;;;;5.60;2.83;;;;;;;19.80;62.98;94477.69;5073982;28;20028;-77
2023/07/20 04:08:00;;;;;;;6.82;2.67;;;;;;;19.85;63.43;94477.94;5069145;28;20032;-76
2023/07/20 04:10:26;;;;;;;6.55;2.63;;;;;;;20.15;62.59;94482.19;5079067;28;20464;-76
2023/07/20 04:12:51;;;;;;;7.20;3.03;;;;;;;20.44;61.66;94467.94;5068598;28;20029;-77
2023/07/20 04:15:16;;;;;;;4.85;2.63;;;;;;;20.83;59.63;94469.94;5079894;28;20031;-77
2023/07/20 04:17:42;;;;;;;5.88;2.63;;;;;;;21.36;57.91;94456.84;5072739;28;20029;-77
2023/07/20 04:20:08;;;;;;;5.80;2.60;;;;;;;21.87;56.27;94455.47;5051201;28;20518;-77
2023/07/20 04:22:34;;;;;;;5.35;2.60;;;;;;;22.53;54.50;94467.72;5065659;28;20494;-76
2023/07/20 04:25:00;;;;;;;5.22;2.90;;;;;;;22.96;52.26;94453.94;5054583;28;20053;-76
2023/07/20 04:27:26;;;;;;;6.18;3.13;;;;;;;23.40;50.76;94454.88;5089791;28;20029;-76
2023/07/20 04:29:52;;;;;;;6.47;3.13;;;;;;;23.87;49.39;94463.28;5067785;28;20063;-75
2023/07/20 04:32:17;;;;;;;5.15;3.17;;;;;;;24.23;48.33;94464.38;5067960;28;20033;-75
2023/07/20 04:34:43;;;;;;;8.13;3.00;;;;;;;24.68;48.52;94461.47;5069070;28;20043;-76
2023/07/20 04:37:08;;;;;;;5.45;3.00;;;;;;;25.11;47.41;94445.38;5052718;28;20036;-75
2023/07/20 04:39:34;;;;;;;7.28;3.20;;;;;;;25.40;47.46;94446.41;5065585;28;20150;-75
2023/07/20 04:41:59;;;;;;;7.25;3.00;;;;;;;25.79;46.04;94446.03;5067797;28;20059;-76
2023/07/20 04:44:25;;;;;;;11.10;3.30;;;;;;;26.15;45.79;94433.56;5068760;28;20486;-75
2023/07/20 04:46:50;;;;;;;9.93;3.85;;;;;;;26.54;44.87;94440.00;5068140;28;20096;-75
2023/07/20 04:49:15;;;;;;;8.65;3.50;;;;;;;26.64;44.31;94426.91;5051994;28;20064;-75
2023/07/20 04:51:41;;;;;;;8.95;3.00;;;;;;;26.67;43.88;94425.63;5066434;28;20028;-75
2023/07/20 05:09:32;;;;;;;7.63;3.45;;;;;;;26.99;43.01;94438.50;5129331;27;20390;-74
2023/07/20 05:11:57;;;;;;;9.55;3.20;;;;;;;26.83;42.70;94435.53;5127137;27;20050;-74
2023/07/20 05:14:23;;;;;;;5.72;3.40;;;;;;;26.88;43.12;94437.47;5121799;28;20438;-74
2023/07/20 05:16:48;;;;;;;7.40;3.90;;;;;;;26.72;42.42;94439.88;5128882;28;20027;-74
2023/07/20 05:19:14;;;;;;;8.90;3.40;;;;;;;26.59;42.37;94444.66;5109659;27;20062;-74
2023/07/20 05:21:39;;;;;;;9.07;3.60;;;;;;;26.49;42.16;94440.72;5106308;28;20027;-74
2023/07/20 05:24:05;;;;;;;6.30;3.03;;;;;;;26.38;42.78;94440.69;5105314;28;20027;-74
2023/07/20 05:26:31;;;;;;;4.85;3.05;;;;;;;26.19;43.08;94424.88;5106810;28;20023;-75
2023/07/20 05:28:56;;;;;;;6.53;3.45;;;;;;;26.23;42.95;94426.03;5106357;28;20428;-74
2023/07/20 05:31:22;;;;;;;7.22;4.10;;;;;;;26.54;42.92;94437.34;5105163;28;20477;-74
2023/07/20 05:33:47;;;;;;;5.63;3.28;;;;;;;26.75;43.71;94435.91;5106603;28;20032;-74
2023/07/20 05:36:12;;;;;;;9.65;4.03;;;;;;;26.69;43.42;94440.34;5106806;28;20534;-74
2023/07/20 05:38:38;;;;;;;8.25;3.92;;;;;;;26.65;43.77;94441.03;5105514;28;20028;-74
2023/07/20 05:41:03;;;;;;;12.10;3.85;;;;;;;26.74;43.10;94443.09;5106177;28;20031;-74
2023/07/20 05:43:29;;;;;;;8.13;4.03;;;;;;;26.54;43.62;94453.31;5105817;28;20028;-74
2023/07/20 05:45:55;;;;;;;5.75;3.50;;;;;;;26.10;44.57;94452.88;5104513;28;20020;-74
2023/07/20 05:48:20;;;;;;;7.93;3.75;;;;;;;26.18;44.31;94451.72;5099222;28;20029;-74
2023/07/20 05:50:46;;;;;;;5.57;3.50;;;;;;;26.25;43.89;94426.63;5085393;28;20027;-74
2023/07/20 05:53:11;;;;;;;11.65;3.63;;;;;;;26.25;44.04;94453.22;5084809;28;20097;-74
2023/07/20 05:55:40;;;;;;;6.40;3.28;;;;;;;26.20;44.31;94458.44;5106092;28;20037;-74
2023/07/20 05:58:05;;;;;;;10.00;3.35;;;;;;;26.48;43.44;94463.03;5088462;28;20507;-74
2023/07/20 06:00:31;;;;;;;7.25;3.28;;;;;;;26.17;43.45;94453.59;5107136;28;20495;-74
2023/07/20 06:02:57;;;;;;;9.95;3.30;;;;;;;26.10;43.53;94454.72;5120051;27;20039;-74
2023/07/20 06:05:23;;;;;;;7.18;3.00;;;;;;;26.59;43.30;94455.31;5088933;28;20031;-74
2023/07/20 06:07:49;;;;;;;7.78;3.00;;;;;;;26.56;43.31;94453.91;5102781;28;20067;-74
2023/07/20 06:10:14;;;;;;;7.53;3.00;;;;;;;26.63;43.15;94445.78;5095107;28;20436;-74
2023/07/20 06:12:42;;;;;;;7.05;2.83;;;;;;;26.65;43.05;94443.69;5073797;28;20028;-74
2023/07/20 06:15:27;;;;;;;7.22;3.00;;;;;;;26.23;43.58;94442.00;5091895;28;20032;-74
2023/07/20 06:17:54;;;;;;;7.15;2.95;;;;;;;26.49;43.43;94450.53;5091305;28;20024;-74
2023/07/20 06:20:19;;;;;;;7.40;2.85;;;;;;;26.39;43.97;94437.00;5090228;28;20079;-74
2023/07/20 06:22:45;;;;;;;8.32;3.05;;;;;;;26.41;44.07;94442.91;5089908;28;20405;-75
2023/07/20 06:25:10;;;;;;;10.48;3.17;;;;;;;26.52;43.73;94439.44;5092829;28;20024;-72
2023/07/20 06:27:36;;;;;;;8.88;3.10;;;;;;;26.39;43.93;94432.50;5056817;28;20055;-76
2023/07/20 06:30:01;;;;;;;13.02;3.70;;;;;;;26.43;43.36;94435.50;5074589;28;20520;-75
2023/07/20 06:32:27;;;;;;;12.70;3.47;;;;;;;26.39;43.18;94434.34;5089957;28;20035;-76
2023/07/20 06:34:52;;;;;;;7.30;3.47;;;;;;;26.62;43.82;94418.34;5092196;28;20031;-76
2023/07/20 06:37:17;;;;;;;7.43;3.25;;;;;;;26.90;43.51;94422.88;5091815;28;20031;-77
2023/07/20 06:39:43;;;;;;;9.57;3.80;;;;;;;26.65;43.39;94428.53;5092065;28;20032;-77
2023/07/20 06:42:08;;;;;;;10.70;3.28;;;;;;;26.71;43.04;94432.09;5091398;28;20451;-77
2023/07/20 06:44:34;;;;;;;11.80;3.75;;;;;;;26.77;43.74;94430.34;5093262;28;20032;-78
2023/07/20 06:46:59;;;;;;;8.32;3.58;;;;;;;26.89;43.01;94428.47;5093136;28;20043;-77
2023/07/20 06:49:26;;;;;;;7.20;3.60;;;;;;;27.01;42.63;94421.22;5092018;28;20028;-77
2023/07/20 06:51:51;;;;;;;9.70;3.47;;;;;;;27.15;42.21;94422.53;5093207;28;20055;-77
2023/07/20 06:54:16;;;;;;;8.75;3.38;;;;;;;27.10;42.71;94418.97;5074852;28;20484;-77
2023/07/20 06:56:42;;;;;;;14.82;4.30;;;;;;;26.97;42.71;94436.06;5089725;28;20028;-77
2023/07/20 06:59:07;;;;;;;8.98;3.90;;;;;;;27.15;42.49;94435.88;5089894;28;20028;-77
2023/07/20 07:01:33;;;;;;;8.13;3.10;;;;;;;27.39;41.83;94428.59;5073881;28;20031;-77
2023/07/20 07:03:58;;;;;;;9.50;3.00;;;;;;;27.56;41.94;94435.81;5074251;28;20537;-77
2023/07/20 07:06:23;;;;;;;7.95;3.20;;;;;;;27.67;41.56;94445.59;5092838;28;20028;-78
2023/07/20 07:08:49;;;;;;;9.63;3.63;;;;;;;27.77;40.50;94448.41;5074804;28;20044;-78
2023/07/20 07:11:15;;;;;;;15.10;3.20;;;;;;;27.57;41.25;94456.88;5091742;28;20012;-77
2023/07/20 07:13:40;;;;;;;7.55;3.25;;;;;;;27.76;39.87;94462.81;5092058;28;20040;-77
2023/07/20 07:16:05;;;;;;;6.35;2.78;;;;;;;27.88;39.95;94461.94;5092841;28;20028;-77
2023/07/20 07:18:31;;;;;;;8.05;2.80;;;;;;;27.82;40.38;94466.38;5074693;28;20032;-77
2023/07/20 07:20:56;;;;;;;9.98;3.83;;;;;;;27.70;41.28;94468.31;5073394;28;20418;-78
2023/07/20 07:23:22;;;;;;;7.18;3.38;;;;;;;27.55;40.70;94482.19;5091431;28;20032;-78
2023/07/20 07:25:47;;;;;;;11.27;3.88;;;;;;;27.44;41.58;94491.84;5091341;28;20034;-77
2023/07/20 07:28:13;;;;;;;5.60;3.30;;;;;;;27.80;41.26;94500.50;5074331;28;20040;-77
2023/07/20 07:30:38;;;;;;;12.35;4.43;;;;;;;27.46;42.35;94503.09;5091337;28;20031;-77
2023/07/20 07:33:04;;;;;;;9.10;3.60;;;;;;;27.47;42.73;94503.91;5091098;28;20047;-78
2023/07/20 07:35:29;;;;;;;8.15;3.30;;;;;;;27.83;42.68;94500.03;5091169;28;20032;-78
2023/07/20 07:37:55;;;;;;;11.52;3.70;;;;;;;28.20;42.43;94503.03;5092638;28;20035;-77
2023/07/20 07:40:20;;;;;;;9.45;3.58;;;;;;;28.29;42.50;94506.09;5091127;28;20024;-78
2023/07/20 07:42:46;;;;;;;14.43;3.83;;;;;;;28.28;41.88;94499.13;5092586;28;20055;-77
2023/07/20 07:45:11;;;;;;;10.50;3.65;;;;;;;28.42;41.36;94492.44;5074223;28;20020;-78
2023/07/20 07:47:36;;;;;;;12.30;3.47;;;;;;;28.27;41.70;94476.94;5073982;28;20101;-78
2023/07/20 07:50:02;;;;;;;11.23;3.88;;;;;;;28.62;40.82;94485.75;5074004;28;20106;-78
2023/07/20 07:52:28;;;;;;;8.07;3.47;;;;;;;28.63;40.41;94490.03;5090939;28;20032;-78
2023/07/20 07:54:53;;;;;;;11.63;4.00;;;;;;;28.48;41.15;94482.63;5091140;28;20028;-78
2023/07/20 07:57:21;;;;;;;12.82;4.13;;;;;;;28.27;41.28;94470.81;5090776;28;20031;-78
2023/07/20 07:59:47;;;;;;;9.85;3.95;;;;;;;28.54;40.66;94449.56;5074123;28;20032;-78
2023/07/20 08:02:12;;;;;;;14.57;3.88;;;;;;;28.57;41.16;94440.25;5090557;28;20058;-78
2023/07/20 08:04:38;;;;;;;9.88;3.70;;;;;;;28.43;41.36;94447.81;5090748;28;20024;-79
2023/07/20 08:07:04;;;;;;;9.73;3.55;;;;;;;28.37;41.13;94454.13;5090456;28;20028;-78
2023/07/20 08:09:30;;;;;;;12.63;3.83;;;;;;;28.69;41.03;94432.91;5073383;28;20075;-78
2023/07/20 08:11:55;;;;;;;12.55;3.67;;;;;;;28.63;40.65;94434.72;5090506;28;20024;-78
2023/07/20 08:14:20;;;;;;;7.70;3.50;;;;;;;28.79;40.83;94462.44;5090545;28;20073;-78
2023/07/20 08:16:47;;;;;;;8.82;3.63;;;;;;;28.93;40.20;94470.91;5090332;28;20024;-78
2023/07/20 08:19:12;;;;;;;13.70;3.95;;;;;;;28.86;40.25;94472.94;5090423;28;20028;-78
2023/07/20 08:21:38;;;;;;;11.63;4.38;;;;;;;28.69;40.15;94479.13;5090560;28;20034;-78
2023/07/20 08:24:03;;;;;;;11.32;4.35;;;;;;;29.01;40.60;94496.38;5090176;28;20035;-78
2023/07/20 08:26:29;;;;;;;14.77;4.53;;;;;;;28.83;39.88;94490.28;5090276;28;20024;-78
2023/07/20 08:28:54;;;;;;;9.90;3.97;;;;;;;28.99;40.51;94482.44;5090310;28;20074;-78
2023/07/20 08:31:20;;;;;;;13.35;4.53;;;;;;;29.15;40.67;94497.66;5056517;28;20409;-78
2023/07/20 08:33:45;;;;;;;8.88;3.95;;;;;;;29.47;39.95;94496.91;5073146;28;20039;-79
2023/07/20 08:36:11;;;;;;;9.75;4.60;;;;;;;29.49;39.40;94484.88;5090121;28;20031;-79
2023/07/20 08:38:36;;;;;;;11.23;4.20;;;;;;;29.48;39.60;94483.28;5089974;28;20032;-79
2023/07/20 08:41:01;;;;;;;9.43;3.70;;;;;;;29.42;40.87;94495.00;5073099;28;20024;-79
2023/07/20 08:43:27;;;;;;;7.63;3.28;;;;;;;29.62;40.71;94497.06;5090135;28;20408;-78
2023/07/20 08:45:55;;;;;;;11.40;3.03;;;;;;;29.54;41.33;94497.50;5089901;28;20024;-78
2023/07/20 08:48:20;;;;;;;14.20;3.10;;;;;;;29.47;40.76;94507.59;5073220;28;20028;-78
2023/07/20 08:50:46;;;;;;;11.38;3.22;;;;;;;29.55;39.94;94507.94;5089934;28;20408;-79
2023/07/20 08:53:11;;;;;;;7.35;3.10;;;;;;;29.58;40.23;94501.28;5090105;28;20405;-78
2023/07/20 08:55:37;;;;;;;8.88;2.78;;;;;;;29.61;38.65;94498.94;5089866;28;20020;-78
2023/07/20 08:58:02;;;;;;;9.95;2.63;;;;;;;29.79;37.20;94491.63;5072837;28;20044;-79
2023/07/20 09:00:30;;;;;;;7.82;2.90;;;;;;;29.64;36.86;94496.81;5089996;28;20020;-79
2023/07/20 09:02:56;;;;;;;11.77;2.45;;;;;;;29.74;37.62;94505.75;5091140;28;20040;-78
2023/07/20 09:05:23;;;;;;;9.10;2.53;;;;;;;29.38;36.05;94500.03;5072934;28;20016;-78
2023/07/20 09:07:49;;;;;;;8.43;2.45;;;;;;;29.57;35.74;94486.31;5089420;28;20118;-78
2023/07/20 09:10:14;;;;;;;11.35;2.63;;;;;;;29.80;35.47;94472.63;5072796;28;20519;-78
2023/07/20 09:12:41;;;;;;;9.25;2.70;;;;;;;29.45;35.65;94474.94;5089731;28;20032;-78
2023/07/20 09:15:07;;;;;;;10.68;2.42;;;;;;;29.53;35.51;94480.66;5089642;28;20028;-79
2023/07/20 09:17:32;;;;;;;6.72;2.03;;;;;;;29.55;36.12;94477.72;5089435;28;20035;-79
2023/07/20 09:19:58;;;;;;;8.30;2.90;;;;;;;29.65;36.21;94488.56;5072733;28;20032;-79
2023/07/20 09:22:30;;;;;;;5.88;2.13;;;;;;;29.71;36.12;94468.81;5084788;28;20429;-79
2023/07/20 09:24:56;;;;;;;7.57;2.33;;;;;;;29.93;35.13;94475.94;5092009;28;20485;-79
2023/07/20 09:27:21;;;;;;;6.88;2.60;;;;;;;29.99;35.82;94469.56;5092990;28;20044;-79
2023/07/20 09:29:48;;;;;;;7.25;2.35;;;;;;;30.11;34.13;94467.50;5109888;28;20533;-79
2023/07/20 09:32:13;;;;;;;8.57;2.63;;;;;;;30.33;33.84;94454.00;5092977;28;20031;-79
2023/07/20 09:34:39;;;;;;;10.18;2.30;;;;;;;30.12;34.66;94457.63;5075825;28;20480;-79
2023/07/20 09:37:06;;;;;;;6.00;2.13;;;;;;;30.39;34.52;94463.69;5109590;28;20035;-79
2023/07/20 09:39:32;;;;;;;8.05;2.30;;;;;;;30.42;34.59;94457.84;5093225;28;20129;-79
2023/07/20 09:42:01;;;;;;;7.18;2.40;;;;;;;30.67;33.67;94465.19;5109786;28;21465;-79
2023/07/20 09:44:27;;;;;;;7.03;2.13;;;;;;;30.68;33.74;94468.69;5077623;28;20024;-79
2023/07/20 09:46:54;;;;;;;6.32;2.28;;;;;;;30.79;33.78;94473.03;5079820;28;20153;-79
2023/07/20 09:49:19;;;;;;;6.40;2.60;;;;;;;30.70;33.59;94437.88;5096640;28;20012;-79
2023/07/20 09:51:45;;;;;;;10.30;2.70;;;;;;;30.81;32.74;94448.66;5079645;28;20569;-79
2023/07/20 09:54:11;;;;;;;10.13;2.30;;;;;;;30.77;33.25;94447.53;5096518;28;20024;-79
2023/07/20 09:56:37;;;;;;;6.40;2.33;;;;;;;30.64;33.95;94441.56;5096427;28;20073;-79
2023/07/20 09:59:04;;;;;;;8.07;2.70;;;;;;;31.00;33.28;94451.66;5113459;28;20036;-79
2023/07/20 10:01:29;;;;;;;9.20;2.55;;;;;;;31.24;32.83;94435.91;5114776;28;20023;-79
2023/07/20 10:03:55;;;;;;;5.60;2.60;;;;;;;31.33;31.73;94427.06;5079382;28;20032;-79
2023/07/20 10:06:23;;;;;;;7.53;2.58;;;;;;;31.10;32.24;94409.59;5079461;28;20020;-79
2023/07/20 10:08:49;;;;;;;6.45;2.13;;;;;;;30.81;32.55;94401.19;5096753;28;20095;-79
2023/07/20 10:11:15;;;;;;;8.35;2.30;;;;;;;30.93;32.24;94419.75;5113186;28;20027;-79
2023/07/20 10:13:41;;;;;;;7.78;2.13;;;;;;;30.89;32.23;94418.66;5096327;28;20069;-79
2023/07/20 10:16:16;;;;;;;7.55;2.42;;;;;;;30.68;32.74;94423.13;5096120;28;20115;-79
2023/07/20 10:18:48;;;;;;;6.32;2.03;;;;;;;30.60;32.28;94421.75;5079236;28;20421;-79
2023/07/20 10:21:13;;;;;;;8.00;2.50;;;;;;;30.56;33.18;94431.34;5096977;28;20028;-79
2023/07/20 10:23:39;;;;;;;8.85;2.47;;;;;;;30.40;33.01;94422.44;5096370;28;20039;-79
2023/07/20 10:26:04;;;;;;;9.32;2.30;;;;;;;30.56;32.57;94417.94;5114178;28;20039;-79
2023/07/20 10:28:30;;;;;;;7.68;2.45;;;;;;;30.22;33.44;94431.72;5096060;28;20043;-79
2023/07/20 10:30:55;;;;;;;6.97;2.47;;;;;;;30.44;31.69;94436.94;5095758;28;20023;-79
2023/07/20 10:33:21;;;;;;;6.22;2.17;;;;;;;30.62;32.51;94451.78;5078910;28;20432;-79
2023/07/20 10:35:54;;;;;;;5.45;2.08;;;;;;;30.73;32.06;94442.72;5095789;28;20032;-79
2023/07/20 10:38:19;;;;;;;6.28;2.25;;;;;;;30.77;31.41;94437.63;5095446;28;20474;-79
2023/07/20 10:40:54;;;;;;;4.38;1.80;;;;;;;30.66;30.52;94426.03;5095683;28;20020;-79
2023/07/20 10:43:20;;;;;;;8.50;2.60;;;;;;;30.56;31.90;94428.66;5095957;28;20040;-79
2023/07/20 10:45:49;;;;;;;8.55;2.55;;;;;;;30.70;31.59;94421.78;5078625;28;20038;-79
2023/07/20 10:48:16;;;;;;;6.15;2.00;;;;;;;30.93;31.57;94422.44;5112551;28;20043;-79
2023/07/20 10:50:42;;;;;;;7.68;2.08;;;;;;;30.79;32.32;94418.59;5078515;28;20032;-78
2023/07/20 10:53:11;;;;;;;6.55;2.40;;;;;;;30.88;30.40;94409.00;5112186;28;20477;-79
2023/07/20 10:55:37;;;;;;;9.05;2.20;;;;;;;30.88;30.43;94379.53;5112306;28;20038;-79
2023/07/20 10:58:12;;;;;;;6.32;2.13;;;;;;;30.81;31.05;94341.41;5112201;28;20122;-79
2023/07/20 11:00:38;;;;;;;6.53;2.22;;;;;;;30.49;31.90;94356.56;5112276;28;20015;-80
2023/07/20 11:03:04;;;;;;;6.97;2.20;;;;;;;30.45;31.38;94376.09;5095368;28;20035;-80
2023/07/20 11:05:40;;;;;;;7.88;2.38;;;;;;;30.30;31.75;94384.88;5095224;28;20404;-80
2023/07/20 11:08:14;;;;;;;8.50;2.08;;;;;;;30.27;30.97;94372.03;5112971;28;20048;-80
2023/07/20 11:10:40;;;;;;;5.47;2.08;;;;;;;30.47;30.76;94352.53;5110060;28;20073;-80
2023/07/20 11:13:18;;;;;;;7.47;2.20;;;;;;;30.40;31.46;94347.44;5112094;28;20031;-79
2023/07/20 11:15:56;;;;;;;9.20;2.33;;;;;;;30.26;31.80;94354.34;5094901;28;20565;-80
2023/07/20 11:18:22;;;;;;;8.05;2.75;;;;;;;29.91;32.39;94330.84;5113416;28;20035;-79
2023/07/20 11:20:50;;;;;;;5.45;2.45;;;;;;;30.19;32.24;94338.47;5077931;28;20111;-80
2023/07/20 11:23:16;;;;;;;5.88;2.10;;;;;;;30.43;33.16;94356.84;5094427;28;20059;-80
2023/07/20 11:25:41;;;;;;;7.80;2.30;;;;;;;30.68;32.16;94359.59;5094822;28;20023;-79
2023/07/20 11:28:09;;;;;;;6.80;2.30;;;;;;;30.88;32.00;94358.06;5094673;28;20036;-79
2023/07/20 11:30:34;;;;;;;10.57;2.83;;;;;;;30.87;33.54;94346.53;5112887;28;20057;-79
2023/07/20 11:33:03;;;;;;;10.57;2.88;;;;;;;30.88;31.85;94347.34;5077747;28;20081;-80
2023/07/20 11:35:28;;;;;;;8.98;2.88;;;;;;;30.93;32.04;94331.28;5111609;28;20028;-80
2023/07/20 11:37:54;;;;;;;6.30;2.92;;;;;;;30.86;32.27;94333.41;5094498;28;20100;-80
2023/07/20 11:40:20;;;;;;;6.82;2.30;;;;;;;30.82;32.74;94332.31;5111475;28;20058;-79
2023/07/20 11:42:45;;;;;;;7.72;2.78;;;;;;;30.74;32.07;94322.88;5094466;28;20050;-79
2023/07/20 11:45:11;;;;;;;6.97;2.90;;;;;;;30.76;31.77;94315.41;5112812;28;20030;-79